EDVK/KSF METAR and TAF weather

Enter ICAO airport designator
Station Type Date Time Source
EDVK METAR 2019/08/18 19:20 UTC NOAA

EDVK 181920Z 31005KT 9999 SCT042 17/15 Q1010


Station Type Date Time Source
EDVK Decoded METAR 2019/08/18 19:20 UTC NOAA

Station name not available
Aug 18, 2019 - 03:20 PM EDT / 2019.08.18 1920 UTC
Wind: from the NW (310 degrees) at 6 MPH (5 KT):0
Visibility: greater than 7 mile(s):0
Sky conditions: partly cloudy
Temperature: 62 F (17 C)
Dew Point: 59 F (15 C)
Relative Humidity: 88%
Pressure (altimeter): 29.83 in. Hg (1010 hPa)
ob: EDVK 181920Z 31005KT 9999 SCT042 17/15 Q1010
cycle: 19

Station Type Date Time Source
EDVK TAF 2011/03/23 07:09 UTC NOAA

TAF COR EDVK 230655Z 2307/2321 30002KT 3500 BR SCT025 PROB30
TEMPO 2307/2309 1400 BCFG
BECMG 2307/2310 01007KT 8000

Example: see airport list